Time;durP1;ratioP1;P1;durP2;ratioP2;P2;SDS_P1;SDS_P2;PMS_P1;PMS_P2;Temp;Humidity;BMP_temperature;BMP_pressure;BME280_temperature;BME280_humidity;BME280_pressure;Samples;Min_cycle;Max_cycle;Signal;HPM_P1;HPM_P2
2022/04/03 00:01:03;;;;;;;7.28;5.03;;;;;;;0.15;65.56;95784.47;10324340;28;98267;-59
2022/04/03 00:06:07;;;;;;;6.40;4.70;;;;;;;0.16;66.13;95788.69;10327499;28;96839;-59
2022/04/03 00:11:11;;;;;;;7.53;4.95;;;;;;;0.07;66.03;95794.41;10312330;28;96840;-59
2022/04/03 00:16:13;;;;;;;6.90;4.78;;;;;;;-0.01;66.23;95790.56;10325673;28;97005;-59
2022/04/03 00:21:19;;;;;;;6.68;4.20;;;;;;;-0.05;66.32;95791.66;10318418;28;97655;-59
2022/04/03 00:26:22;;;;;;;6.75;4.68;;;;;;;-0.07;65.91;95793.50;10330839;28;96883;-59
2022/04/03 00:31:25;;;;;;;7.00;4.28;;;;;;;-0.09;66.28;95797.91;10327852;28;96961;-59
2022/04/03 00:36:29;;;;;;;6.13;4.28;;;;;;;-0.13;65.88;95788.72;10315759;28;96862;-58
2022/04/03 00:41:32;;;;;;;6.18;5.05;;;;;;;-0.12;65.65;95790.38;10331091;28;96668;-59
2022/04/03 00:46:36;;;;;;;6.10;4.72;;;;;;;-0.11;65.44;95786.91;10311901;28;98879;-59
2022/04/03 00:51:40;;;;;;;8.23;4.80;;;;;;;-0.16;66.18;95786.38;10312881;28;97955;-59
2022/04/03 00:56:43;;;;;;;6.28;4.85;;;;;;;-0.14;66.08;95781.94;10314866;28;99708;-59
2022/04/03 01:01:46;;;;;;;6.50;5.00;;;;;;;-0.16;66.16;95783.78;10328497;28;97156;-59
2022/04/03 01:06:51;;;;;;;6.72;5.00;;;;;;;-0.19;65.75;95781.41;10330018;28;96816;-59
2022/04/03 01:11:54;;;;;;;6.97;5.05;;;;;;;-0.14;65.81;95784.53;10339416;28;96742;-59
2022/04/03 01:16:57;;;;;;;6.78;4.85;;;;;;;-0.12;66.34;95785.25;10317094;28;98786;-59
2022/04/03 01:22:01;;;;;;;6.38;4.93;;;;;;;-0.13;65.76;95778.44;10306617;28;97128;-59
2022/04/03 01:27:06;;;;;;;6.00;4.73;;;;;;;-0.23;66.91;95777.34;10302278;28;98021;-58
2022/04/03 01:32:10;;;;;;;6.47;5.60;;;;;;;-0.21;66.76;95771.22;10328147;28;96865;-59
2022/04/03 01:37:12;;;;;;;7.20;5.50;;;;;;;-0.27;66.18;95774.16;10328780;28;98506;-59
2022/04/03 01:42:17;;;;;;;7.25;5.70;;;;;;;-0.26;66.50;95783.50;10328826;28;96796;-59
2022/04/03 01:47:19;;;;;;;7.22;5.78;;;;;;;-0.35;66.80;95778.94;10310666;28;99914;-59
2022/04/03 01:52:22;;;;;;;8.85;6.75;;;;;;;-0.39;67.03;95777.47;10324313;28;97576;-59
2022/04/03 01:57:27;;;;;;;7.82;6.15;;;;;;;-0.44;66.67;95785.47;10326308;28;98061;-59
2022/04/03 02:02:29;;;;;;;7.60;5.85;;;;;;;-0.48;67.19;95783.97;10315547;28;96852;-59
2022/04/03 02:07:33;;;;;;;6.28;5.13;;;;;;;-0.52;66.66;95787.66;10328333;28;98775;-59
2022/04/03 02:12:38;;;;;;;6.93;5.47;;;;;;;-0.58;66.78;95793.13;10333910;28;97037;-59
2022/04/03 02:17:41;;;;;;;6.68;5.38;;;;;;;-0.63;66.82;95790.84;10304625;28;97162;-59
2022/04/03 02:22:44;;;;;;;7.00;5.72;;;;;;;-0.67;65.51;95791.13;10311803;28;97163;-59
2022/04/03 02:27:49;;;;;;;6.22;5.30;;;;;;;-0.77;66.29;95801.91;10334434;28;97036;-59
2022/04/03 02:32:51;;;;;;;7.03;6.00;;;;;;;-0.78;65.11;95796.88;10330968;28;97165;-59
2022/04/03 02:37:54;;;;;;;6.72;5.10;;;;;;;-0.74;65.85;95806.03;10308827;28;96717;-59
2022/04/03 02:42:59;;;;;;;6.75;5.65;;;;;;;-0.77;64.93;95801.91;10313372;28;97047;-59
2022/04/03 02:48:01;;;;;;;7.15;5.35;;;;;;;-0.76;65.53;95811.25;10318824;28;97300;-59
2022/04/03 02:53:04;;;;;;;7.75;6.18;;;;;;;-0.76;65.07;95807.88;10297431;28;97844;-59
2022/04/03 02:58:09;;;;;;;8.43;6.97;;;;;;;-0.84;65.42;95803.19;10312888;28;97299;-59
2022/04/03 03:03:12;;;;;;;7.85;6.95;;;;;;;-0.90;64.49;95811.22;10311649;28;99558;-59
2022/04/03 03:08:14;;;;;;;10.02;7.03;;;;;;;-0.98;65.34;95813.41;10305484;28;96723;-59
2022/04/03 03:13:19;;;;;;;8.60;6.88;;;;;;;-1.01;65.07;95816.97;10315122;28;97148;-59
2022/04/03 03:18:22;;;;;;;9.57;7.18;;;;;;;-0.97;64.49;95822.75;10327025;28;96960;-59
2022/04/03 03:23:25;;;;;;;9.35;6.97;;;;;;;-1.07;65.25;95822.44;10333020;28;96964;-59
2022/04/03 03:28:29;;;;;;;10.73;7.28;;;;;;;-1.09;64.38;95822.53;10332084;28;97511;-59
2022/04/03 03:33:33;;;;;;;8.65;7.30;;;;;;;-1.14;65.51;95821.97;10319814;28;96783;-59
2022/04/03 03:38:36;;;;;;;9.70;7.15;;;;;;;-1.22;65.15;95826.72;10317694;28;96785;-59
2022/04/03 03:43:40;;;;;;;9.07;6.53;;;;;;;-1.22;64.68;95836.97;10307928;28;98698;-59
2022/04/03 03:48:43;;;;;;;9.32;7.40;;;;;;;-1.31;63.90;95834.91;10315444;28;97519;-59
2022/04/03 03:53:46;;;;;;;9.02;7.40;;;;;;;-1.39;63.84;95830.22;10304989;28;97157;-59
2022/04/03 03:58:50;;;;;;;10.52;7.13;;;;;;;-1.43;64.85;95843.25;10330579;28;96854;-59
2022/04/03 04:03:53;;;;;;;8.85;6.93;;;;;;;-1.54;64.93;95843.84;10310166;28;96814;-59
2022/04/03 04:08:56;;;;;;;9.38;7.55;;;;;;;-1.59;65.07;95850.97;10302361;28;96732;-59
2022/04/03 04:14:00;;;;;;;11.10;7.80;;;;;;;-1.71;65.50;95852.44;10318278;28;97245;-59
2022/04/03 04:19:03;;;;;;;10.32;7.32;;;;;;;-1.84;66.07;95853.09;10325569;28;97613;-59
2022/04/03 04:24:07;;;;;;;11.15;7.10;;;;;;;-2.01;65.92;95854.91;10316103;28;98716;-59
2022/04/03 04:29:11;;;;;;;10.13;7.80;;;;;;;-2.09;66.08;95868.09;10314163;28;96783;-59
2022/04/03 04:34:16;;;;;;;12.63;8.10;;;;;;;-2.15;66.54;95864.13;10307854;28;96735;-59
2022/04/03 04:39:19;;;;;;;11.97;7.60;;;;;;;-2.23;65.77;95863.69;10310882;28;97050;-59
2022/04/03 04:44:23;;;;;;;10.68;7.63;;;;;;;-2.31;66.09;95864.09;10331964;28;97006;-59
2022/04/03 04:49:26;;;;;;;11.95;8.00;;;;;;;-2.37;66.18;95859.28;10329930;28;97431;-59
2022/04/03 04:54:30;;;;;;;9.73;7.63;;;;;;;-2.39;66.03;95852.59;10330235;28;96899;-59
2022/04/03 04:59:34;;;;;;;10.50;7.20;;;;;;;-2.32;67.05;95856.50;10319057;28;96835;-59
2022/04/03 05:04:37;;;;;;;11.02;7.88;;;;;;;-2.24;65.78;95864.59;10309805;28;99778;-59
2022/04/03 05:09:40;;;;;;;11.05;7.97;;;;;;;-2.26;66.45;95862.13;10330154;28;96973;-59
2022/04/03 05:14:44;;;;;;;10.45;7.60;;;;;;;-2.26;66.67;95859.56;10301958;28;96903;-59
2022/04/03 05:19:47;;;;;;;10.63;7.63;;;;;;;-2.25;66.25;95871.44;10305558;28;97108;-59
2022/04/03 05:24:50;;;;;;;9.82;7.35;;;;;;;-2.22;65.47;95878.16;10323579;28;96876;-59
2022/04/03 05:29:55;;;;;;;11.52;7.78;;;;;;;-2.12;66.09;95873.38;10328905;28;96770;-59
2022/04/03 05:34:59;;;;;;;11.33;7.23;;;;;;;-2.04;66.28;95871.25;10330367;28;97209;-59
2022/04/03 05:40:04;;;;;;;10.60;7.85;;;;;;;-1.96;66.43;95879.34;10324845;28;98010;-59
2022/04/03 05:45:09;;;;;;;10.30;7.15;;;;;;;-1.87;66.27;95883.16;10330096;28;97028;-59
2022/04/03 05:50:14;;;;;;;;;;;;;;;-1.76;65.34;95883.44;10324037;28;96763;-59
2022/04/03 05:55:20;;;;;;;9.48;7.20;;;;;;;-1.60;65.53;95891.13;10322914;28;97613;-59
2022/04/03 06:00:25;;;;;;;10.38;6.88;;;;;;;-1.49;65.71;95888.81;10316962;28;96929;-58
2022/04/03 06:05:29;;;;;;;9.73;7.40;;;;;;;-1.40;65.08;95892.59;10304771;28;96988;-60
2022/04/03 06:10:35;;;;;;;7.95;6.47;;;;;;;-1.25;64.45;95902.94;10312667;28;96828;-59
2022/04/03 06:15:42;;;;;;;10.90;7.93;;;;;;;-1.15;63.68;95886.97;10307236;28;96920;-59
2022/04/03 06:20:45;;;;;;;9.27;7.20;;;;;;;-1.12;64.75;95904.75;10305789;28;97098;-59
2022/04/03 06:25:50;;;;;;;11.77;7.10;;;;;;;-0.94;63.89;95902.06;10337093;28;96883;-59
2022/04/03 06:30:56;;;;;;;9.15;7.32;;;;;;;-0.91;63.84;95899.31;10319897;28;97719;-59
2022/04/03 06:36:00;;;;;;;9.85;6.85;;;;;;;-0.76;63.71;95908.72;10319473;28;96854;-59
2022/04/03 06:41:03;;;;;;;8.60;6.65;;;;;;;-0.67;63.14;95906.56;10306702;28;99968;-60
2022/04/03 06:46:08;;;;;;;8.25;6.15;;;;;;;-0.62;63.00;95902.81;10313425;28;98393;-59
2022/04/03 06:51:11;;;;;;;7.43;5.88;;;;;;;-0.61;60.77;95901.09;10333250;28;97071;-59
2022/04/03 06:56:14;;;;;;;6.43;5.20;;;;;;;-0.57;59.55;95898.22;10334840;28;96956;-59
2022/04/03 07:01:18;;;;;;;8.48;6.22;;;;;;;-0.46;60.34;95905.31;10325622;28;96722;-60
2022/04/03 07:06:21;;;;;;;7.93;6.33;;;;;;;-0.27;60.20;95914.53;10315114;28;96917;-59
2022/04/03 07:11:24;;;;;;;8.27;5.65;;;;;;;-0.10;59.54;95916.91;10310141;28;96962;-59
2022/04/03 07:16:28;;;;;;;9.68;5.97;;;;;;;0.05;58.80;95921.16;10321621;28;97094;-60
2022/04/03 07:21:32;;;;;;;8.63;6.20;;;;;;;0.35;58.94;95925.38;10334113;28;96848;-59
2022/04/03 07:26:36;;;;;;;7.18;5.72;;;;;;;0.43;58.56;95915.44;10333486;28;96719;-59
2022/04/03 07:31:41;;;;;;;7.25;5.55;;;;;;;0.46;57.44;95924.69;10322065;28;96917;-59
2022/04/03 07:36:44;;;;;;;6.22;5.45;;;;;;;0.67;56.77;95932.88;10309287;28;98687;-60
2022/04/03 07:41:47;;;;;;;7.05;5.60;;;;;;;0.76;56.62;95939.19;10302475;28;96899;-59
2022/04/03 07:46:51;;;;;;;8.73;5.75;;;;;;;0.72;55.86;95930.84;10330877;28;96878;-59
2022/04/03 07:51:54;;;;;;;6.18;5.30;;;;;;;0.84;55.40;95946.41;10314534;28;96812;-59
2022/04/03 07:56:57;;;;;;;6.82;5.25;;;;;;;0.76;55.40;95944.34;10317735;28;96648;-59
2022/04/03 08:02:01;;;;;;;7.28;5.18;;;;;;;0.94;55.65;95960.34;10331467;28;98618;-60
2022/04/03 08:07:04;;;;;;;7.25;5.32;;;;;;;0.93;54.96;95971.56;10332046;28;97707;-60
2022/04/03 08:12:08;;;;;;;6.32;5.22;;;;;;;0.91;54.18;95971.66;10306864;28;98121;-60
2022/04/03 08:17:12;;;;;;;6.75;5.65;;;;;;;0.93;54.89;95968.97;10313486;28;96770;-59
2022/04/03 08:22:15;;;;;;;8.05;6.13;;;;;;;0.84;54.98;95977.28;10309542;28;97080;-59
2022/04/03 08:27:19;;;;;;;8.20;6.07;;;;;;;0.83;55.49;95981.59;10317523;28;96900;-59
2022/04/03 08:32:23;;;;;;;6.68;5.97;;;;;;;0.96;55.68;95973.94;10313251;28;97157;-59
2022/04/03 08:37:28;;;;;;;8.38;6.60;;;;;;;1.02;56.15;95988.16;10319831;28;97049;-59
2022/04/03 08:42:31;;;;;;;;;;;;;;;1.07;56.66;95989.53;10311154;28;97717;-59
2022/04/03 08:47:43;;;;;;;7.35;6.38;;;;;;;1.21;56.25;95996.41;10310831;28;97952;-59
2022/04/03 08:52:47;;;;;;;7.90;6.53;;;;;;;1.41;56.27;95997.69;10299346;28;96961;-60
2022/04/03 08:57:51;;;;;;;6.87;5.90;;;;;;;1.48;55.59;96001.53;10318294;28;97029;-59
2022/04/03 09:02:55;;;;;;;9.50;5.95;;;;;;;1.65;55.71;95995.31;10312538;28;97048;-59
2022/04/03 09:08:01;;;;;;;7.47;6.32;;;;;;;1.62;54.47;96010.13;10305873;28;98179;-59
2022/04/03 09:13:05;;;;;;;7.25;6.20;;;;;;;1.89;55.05;96008.34;10301371;28;96924;-60
2022/04/03 09:18:09;;;;;;;8.88;7.00;;;;;;;1.83;54.80;96008.72;10312297;28;96924;-59
2022/04/03 09:23:12;;;;;;;8.80;6.85;;;;;;;1.91;54.78;96014.22;10309362;28;96837;-59
2022/04/03 09:28:15;;;;;;;7.43;5.70;;;;;;;1.93;54.42;96014.94;10319024;28;96815;-59
2022/04/03 09:33:20;;;;;;;8.38;6.78;;;;;;;1.93;54.46;96009.78;10313964;28;97140;-59
2022/04/03 09:38:25;;;;;;;;;;;;;;;2.00;55.00;96022.28;10314924;28;99953;-59
2022/04/03 09:43:29;;;;;;;7.50;6.43;;;;;;;2.12;54.17;96014.56;10322327;28;96898;-59
2022/04/03 09:48:34;;;;;;;7.32;6.18;;;;;;;2.03;53.55;96019.50;10320588;28;97554;-59
2022/04/03 09:53:44;;;;;;;8.65;6.22;;;;;;;2.24;53.05;96025.81;10320391;28;96802;-59
2022/04/03 09:58:58;;;;;;;7.13;5.75;;;;;;;2.38;52.20;96026.66;10326226;28;98503;-59
2022/04/03 10:04:04;;;;;;;6.43;5.50;;;;;;;2.71;52.30;96020.16;10318064;28;98150;-59
2022/04/03 10:09:11;;;;;;;8.13;6.03;;;;;;;2.64;52.82;96028.28;10308382;28;97198;-59
2022/04/03 10:14:14;;;;;;;7.13;6.38;;;;;;;2.71;51.90;96030.47;10319934;28;96806;-59
2022/04/03 10:19:19;;;;;;;7.55;5.70;;;;;;;2.59;50.52;96024.38;10327993;28;97600;-60
2022/04/03 10:24:24;;;;;;;10.30;6.22;;;;;;;2.63;51.75;96021.50;10314051;28;97161;-59
2022/04/03 10:29:31;;;;;;;;;;;;;;;2.89;51.98;96018.88;10311742;28;96885;-60
2022/04/03 10:34:47;;;;;;;7.35;6.55;;;;;;;3.10;51.48;96020.88;10306289;28;97220;-59
2022/04/03 10:39:53;;;;;;;7.63;6.50;;;;;;;3.24;52.08;96016.41;10312526;28;99791;-59
2022/04/03 10:45:19;;;;;;;7.72;6.18;;;;;;;3.14;51.10;96014.59;10305768;28;96720;-60
2022/04/03 10:50:23;;;;;;;;;;;;;;;3.28;51.33;96017.03;10324348;28;97771;-59
2022/04/03 10:55:29;;;;;;;8.85;7.05;;;;;;;3.25;51.26;96012.06;10323667;28;98527;-60
2022/04/03 11:00:37;;;;;;;7.43;6.22;;;;;;;3.47;51.36;96010.56;10317948;28;96750;-59
2022/04/03 11:05:46;;;;;;;8.27;6.65;;;;;;;3.32;51.15;96018.44;10317663;28;99075;-59
2022/04/03 11:10:54;;;;;;;8.80;6.72;;;;;;;2.95;51.41;96020.22;10317769;28;96865;-59
2022/04/03 11:15:58;;;;;;;7.32;6.00;;;;;;;2.72;49.67;96019.19;10316669;28;97766;-59
2022/04/03 11:21:09;;;;;;;9.48;6.60;;;;;;;2.82;50.79;96017.63;10320192;28;96917;-59
2022/04/03 11:26:13;;;;;;;9.10;6.97;;;;;;;2.87;50.46;96020.72;10322975;28;97060;-60
2022/04/03 11:31:17;;;;;;;9.02;7.00;;;;;;;2.84;51.22;96015.78;10326553;28;96719;-60
2022/04/03 11:36:26;;;;;;;7.72;6.05;;;;;;;2.88;51.17;96010.31;10307458;28;96868;-59
2022/04/03 11:41:32;;;;;;;8.27;7.03;;;;;;;2.59;51.99;96012.31;10302346;28;96815;-60
2022/04/03 11:46:41;;;;;;;9.65;7.38;;;;;;;2.59;52.49;96020.03;10328981;28;98638;-59
2022/04/03 11:51:46;;;;;;;8.77;6.63;;;;;;;2.62;51.30;96022.41;10332540;28;97108;-60
2022/04/03 11:56:49;;;;;;;;;;;;;;;2.60;49.93;96016.53;10332621;28;96844;-60
2022/04/03 12:01:52;;;;;;;7.70;5.85;;;;;;;2.62;51.23;96019.84;10322136;28;96877;-59
2022/04/03 12:06:59;;;;;;;8.77;7.28;;;;;;;2.52;51.08;96018.81;10311674;28;97191;-60
2022/04/03 12:12:04;;;;;;;8.75;6.53;;;;;;;2.51;51.78;96022.28;10314766;28;98623;-60
2022/04/03 12:17:08;;;;;;;9.25;7.53;;;;;;;2.80;50.74;96020.31;10301699;28;97036;-59
2022/04/03 12:22:18;;;;;;;10.23;7.25;;;;;;;3.11;50.63;96020.78;10329365;28;96887;-59
2022/04/03 12:27:22;;;;;;;8.82;7.47;;;;;;;3.35;51.27;96023.41;10329780;28;97034;-59
2022/04/03 12:32:35;;;;;;;7.80;6.93;;;;;;;3.62;51.55;96019.78;10331943;28;97067;-59
2022/04/03 12:37:41;;;;;;;10.50;7.43;;;;;;;3.79;50.57;96013.38;10330355;28;96769;-60
2022/04/03 12:42:45;;;;;;;8.40;7.03;;;;;;;4.07;50.47;96017.34;10329319;28;97144;-59
2022/04/03 12:47:50;;;;;;;8.25;6.88;;;;;;;4.11;49.42;96016.22;10330312;28;97350;-60
2022/04/03 12:52:57;;;;;;;8.17;7.10;;;;;;;4.30;49.61;96017.41;10314167;28;96810;-60
2022/04/03 12:58:29;;;;;;;8.35;7.00;;;;;;;4.22;49.52;96018.00;10317915;28;97617;-60
2022/04/03 13:03:34;;;;;;;13.43;7.25;;;;;;;4.32;50.12;96024.13;10324685;28;96732;-60
2022/04/03 13:08:48;;;;;;;8.55;7.18;;;;;;;4.04;50.12;96025.38;10306864;28;97695;-61
2022/04/03 13:13:50;;;;;;;7.80;6.95;;;;;;;3.93;50.23;96022.72;10317617;28;99721;-60
2022/04/03 13:18:53;;;;;;;7.53;6.70;;;;;;;3.91;50.22;96009.09;10306372;28;96710;-60
2022/04/03 13:23:58;;;;;;;9.30;6.68;;;;;;;3.77;49.87;96023.84;10301438;28;97100;-60
2022/04/03 13:29:21;;;;;;;7.97;6.70;;;;;;;3.86;50.06;96014.59;10302387;28;97809;-59
2022/04/03 13:34:24;;;;;;;8.05;6.72;;;;;;;3.81;50.19;96009.78;10306328;28;97153;-60
2022/04/03 13:39:28;;;;;;;7.10;6.28;;;;;;;3.81;50.66;96006.34;10320735;28;96842;-60
2022/04/03 13:44:31;;;;;;;7.80;6.57;;;;;;;4.00;50.04;96008.41;10325616;28;97411;-60
2022/04/03 13:49:34;;;;;;;6.80;6.10;;;;;;;4.06;49.80;96002.00;10329531;28;96878;-60
2022/04/03 13:54:38;;;;;;;8.60;6.72;;;;;;;4.25;49.91;96012.59;10327582;28;96810;-60
2022/04/03 13:59:41;;;;;;;8.65;7.32;;;;;;;4.27;49.93;96007.31;10319231;28;97533;-60
2022/04/03 14:04:44;;;;;;;8.88;6.90;;;;;;;4.60;49.27;96008.31;10322939;28;97229;-60
2022/04/03 14:09:49;;;;;;;9.13;7.25;;;;;;;4.48;49.73;96000.53;10312453;28;97130;-60
2022/04/03 14:14:52;;;;;;;8.85;7.28;;;;;;;4.14;50.32;95991.88;10314303;28;97059;-60
2022/04/03 14:19:56;;;;;;;7.05;6.35;;;;;;;3.92;51.07;96000.41;10335320;28;96825;-60
2022/04/03 14:25:00;;;;;;;7.35;6.47;;;;;;;3.50;50.40;96003.41;10334561;28;96805;-60
2022/04/03 14:30:04;;;;;;;8.73;6.80;;;;;;;3.34;51.06;96003.66;10313642;28;96908;-60
2022/04/03 14:35:08;;;;;;;8.60;6.88;;;;;;;3.32;51.45;96015.06;10303975;28;97901;-60
2022/04/03 14:40:14;;;;;;;8.88;7.68;;;;;;;3.25;51.34;96012.06;10320627;28;100031;-60
2022/04/03 14:45:17;;;;;;;8.50;7.60;;;;;;;3.30;51.69;96020.31;10315550;28;96763;-60
2022/04/03 14:50:20;;;;;;;8.05;7.22;;;;;;;3.17;51.30;96019.53;10319579;28;96715;-59
2022/04/03 14:55:28;;;;;;;9.77;7.05;;;;;;;3.20;51.24;96016.72;10325757;28;96994;-60
2022/04/03 15:00:30;;;;;;;11.75;8.52;;;;;;;3.27;51.94;96015.38;10330373;28;97255;-60
2022/04/03 15:05:38;;;;;;;8.65;7.35;;;;;;;3.18;52.60;96016.84;10316225;28;96878;-59
2022/04/03 15:10:43;;;;;;;9.75;7.30;;;;;;;3.04;52.71;96010.06;10331629;28;98319;-60
2022/04/03 15:15:45;;;;;;;9.82;8.07;;;;;;;3.16;51.78;96028.22;10325645;28;98479;-60
2022/04/03 15:20:49;;;;;;;8.27;7.28;;;;;;;3.15;52.52;96031.72;10321210;28;96947;-60
2022/04/03 15:25:53;;;;;;;8.93;7.07;;;;;;;3.29;52.38;96033.34;10330318;28;96810;-59
2022/04/03 15:30:56;;;;;;;7.93;7.13;;;;;;;3.33;52.24;96027.84;10315105;28;96793;-60
2022/04/03 15:36:01;;;;;;;8.27;6.60;;;;;;;3.22;52.62;96026.03;10321239;28;97320;-60
2022/04/03 15:41:05;;;;;;;8.57;7.38;;;;;;;2.96;52.98;96022.69;10332413;28;97259;-60
2022/04/03 15:46:08;;;;;;;9.50;7.30;;;;;;;2.85;53.35;96030.34;10329764;28;96948;-60
2022/04/03 15:51:11;;;;;;;8.57;7.43;;;;;;;2.82;53.47;96026.22;10329408;28;96976;-60
2022/04/03 15:56:15;;;;;;;10.98;7.70;;;;;;;2.57;53.83;96021.91;10315035;28;99758;-59
2022/04/03 16:01:20;;;;;;;10.27;7.90;;;;;;;2.56;54.00;96035.72;10307534;28;96786;-60
2022/04/03 16:06:23;;;;;;;8.90;7.20;;;;;;;2.43;54.13;96038.31;10305813;28;96981;-60
2022/04/03 16:11:27;;;;;;;8.45;7.22;;;;;;;2.43;54.64;96055.53;10314922;28;96897;-60
2022/04/03 16:16:30;;;;;;;9.23;7.40;;;;;;;2.36;55.05;96054.28;10322659;28;97803;-60
2022/04/03 16:21:34;;;;;;;9.23;8.00;;;;;;;2.26;55.18;96054.88;10307856;28;96741;-59
2022/04/03 16:26:38;;;;;;;8.85;7.40;;;;;;;2.22;55.24;96055.19;10315120;28;98571;-59
2022/04/03 16:31:41;;;;;;;10.77;8.35;;;;;;;2.28;55.80;96059.94;10331254;28;96889;-59
2022/04/03 16:36:44;;;;;;;9.50;7.15;;;;;;;2.35;55.49;96066.34;10331368;28;97635;-60
2022/04/03 16:41:48;;;;;;;8.70;6.75;;;;;;;2.27;55.06;96063.47;10322909;28;98152;-59
2022/04/03 16:46:51;;;;;;;8.37;6.80;;;;;;;2.18;54.05;96064.03;10331912;28;96865;-59
2022/04/03 16:51:54;;;;;;;7.25;6.32;;;;;;;2.23;54.25;96070.56;10323688;28;97361;-60
2022/04/03 16:56:59;;;;;;;9.80;7.65;;;;;;;2.15;54.89;96075.38;10316462;28;98483;-59
2022/04/03 17:02:02;;;;;;;9.80;7.35;;;;;;;2.09;55.43;96084.34;10331483;28;99961;-60
2022/04/03 17:07:06;;;;;;;10.73;8.23;;;;;;;2.03;56.12;96078.78;10324405;28;98387;-60
2022/04/03 17:12:10;;;;;;;8.98;7.72;;;;;;;1.92;56.40;96088.00;10320027;28;96918;-59
2022/04/03 17:17:13;;;;;;;9.93;7.83;;;;;;;1.95;56.17;96102.44;10323772;28;97770;-60
2022/04/03 17:22:18;;;;;;;10.63;8.15;;;;;;;1.89;56.94;96101.09;10328309;28;97217;-60
2022/04/03 17:27:23;;;;;;;9.95;7.78;;;;;;;1.84;57.35;96108.28;10308952;28;97099;-60
2022/04/03 17:32:26;;;;;;;23.83;14.98;;;;;;;1.84;57.20;96105.69;10317452;28;96887;-60
2022/04/03 17:37:29;;;;;;;26.90;19.05;;;;;;;1.84;56.98;96110.84;10325589;28;98701;-59
2022/04/03 17:42:34;;;;;;;8.65;7.53;;;;;;;1.74;56.86;96104.63;10326326;28;96806;-60
2022/04/03 17:47:36;;;;;;;9.83;7.23;;;;;;;1.69;57.07;96122.13;10336749;28;96806;-60
2022/04/03 17:52:39;;;;;;;8.07;6.95;;;;;;;1.65;57.27;96123.25;10336793;28;101799;-60
2022/04/03 17:57:44;;;;;;;9.98;8.27;;;;;;;1.64;57.59;96108.69;10316892;28;98673;-60
2022/04/03 18:02:47;;;;;;;9.52;7.40;;;;;;;1.67;57.18;96113.66;10318351;28;96917;-60
2022/04/03 18:07:50;;;;;;;11.30;8.00;;;;;;;1.61;57.48;96120.03;10331997;28;96822;-60
2022/04/03 18:12:54;;;;;;;9.57;7.80;;;;;;;1.54;57.35;96123.91;10324496;28;97173;-60
2022/04/03 18:17:57;;;;;;;9.93;8.23;;;;;;;1.45;57.38;96125.31;10320416;28;96841;-60
2022/04/03 18:23:18;;;;;;;11.88;8.35;;;;;;;1.40;57.82;96129.91;10312724;28;96765;-59
2022/04/03 18:28:27;;;;;;;9.32;8.00;;;;;;;1.38;57.19;96134.31;10313104;28;97860;-60
2022/04/03 18:33:31;;;;;;;19.60;13.77;;;;;;;1.40;57.18;96137.63;10327629;28;96835;-60
2022/04/03 18:38:34;;;;;;;21.60;16.08;;;;;;;1.39;57.48;96148.84;10326620;28;96667;-59
2022/04/03 18:43:39;;;;;;;9.73;7.95;;;;;;;1.37;57.42;96153.25;10318141;28;97043;-60
2022/04/03 18:48:42;;;;;;;10.50;7.83;;;;;;;1.31;58.32;96154.47;10314359;28;96921;-60
2022/04/03 18:53:46;;;;;;;10.25;8.07;;;;;;;1.38;57.46;96154.91;10323417;28;96985;-60
2022/04/03 18:58:50;;;;;;;11.30;7.95;;;;;;;1.33;57.56;96154.34;10312248;28;96952;-60
2022/04/03 19:03:53;;;;;;;11.48;8.40;;;;;;;1.28;57.88;96164.09;10310426;28;96867;-60
2022/04/03 19:08:56;;;;;;;10.98;8.13;;;;;;;1.28;58.08;96166.66;10315397;28;97308;-60
2022/04/03 19:14:00;;;;;;;9.30;7.55;;;;;;;1.22;57.87;96170.44;10307635;28;96670;-60
2022/04/03 19:19:04;;;;;;;10.05;7.65;;;;;;;1.24;57.74;96175.50;10327255;28;97000;-60
2022/04/03 19:24:08;;;;;;;9.88;7.20;;;;;;;1.27;58.07;96177.91;10326232;28;99962;-59
2022/04/03 19:29:13;;;;;;;11.00;7.60;;;;;;;1.27;57.93;96177.91;10317807;28;96751;-60
2022/04/03 19:34:18;;;;;;;9.77;7.55;;;;;;;1.18;58.41;96179.28;10331299;28;97440;-60
2022/04/03 19:39:21;;;;;;;9.65;7.78;;;;;;;1.12;58.30;96177.91;10324464;28;98581;-60
2022/04/03 19:44:25;;;;;;;10.48;8.00;;;;;;;1.11;57.90;96183.97;10302748;28;96892;-60
2022/04/03 19:49:29;;;;;;;10.10;7.47;;;;;;;1.09;58.42;96185.78;10307242;28;97566;-60
2022/04/03 19:54:31;;;;;;;10.55;7.40;;;;;;;1.00;58.90;96194.06;10330510;28;98566;-60
2022/04/03 19:59:36;;;;;;;10.77;7.97;;;;;;;0.96;59.04;96195.16;10332608;28;96751;-60
2022/04/03 20:04:43;;;;;;;9.30;7.03;;;;;;;0.96;58.61;96201.09;10331660;28;96920;-60
2022/04/03 20:09:46;;;;;;;9.80;7.43;;;;;;;0.90;58.67;96196.34;10325058;28;100090;-60
2022/04/03 20:14:51;;;;;;;9.02;7.53;;;;;;;0.84;58.63;96201.00;10300375;28;96891;-60
2022/04/03 20:19:54;;;;;;;10.02;8.20;;;;;;;0.77;58.78;96211.63;10317282;28;96840;-60
2022/04/03 20:24:59;;;;;;;11.63;7.55;;;;;;;0.75;58.57;96216.03;10320797;28;96896;-61
2022/04/03 20:30:05;;;;;;;9.50;7.43;;;;;;;0.71;58.79;96227.44;10320592;28;97130;-60
2022/04/03 20:35:08;;;;;;;10.00;7.28;;;;;;;0.74;58.50;96224.69;10313654;28;97760;-61
2022/04/03 20:40:12;;;;;;;10.40;7.60;;;;;;;0.70;58.96;96230.91;10325482;28;97019;-61
2022/04/03 20:45:16;;;;;;;10.77;7.95;;;;;;;0.64;59.18;96236.41;10328901;28;99779;-60
2022/04/03 20:50:19;;;;;;;11.27;7.47;;;;;;;0.63;59.26;96239.88;10313110;28;96877;-61
2022/04/03 20:55:24;;;;;;;12.20;8.40;;;;;;;0.53;59.48;96233.59;10307423;28;97083;-61
2022/04/03 21:00:28;;;;;;;12.27;8.53;;;;;;;0.45;60.25;96230.66;10320637;28;96976;-61
2022/04/03 21:05:31;;;;;;;11.67;8.63;;;;;;;0.29;60.60;96234.06;10330421;28;97011;-61
2022/04/03 21:10:34;;;;;;;13.10;10.02;;;;;;;0.18;60.18;96238.97;10313667;28;96856;-60
2022/04/03 21:15:38;;;;;;;11.07;8.52;;;;;;;0.07;61.20;96236.16;10320725;28;96791;-61
2022/04/03 21:20:43;;;;;;;10.98;8.18;;;;;;;-0.04;61.17;96250.41;10297803;28;97006;-60
2022/04/03 21:25:46;;;;;;;11.23;8.53;;;;;;;-0.08;61.40;96248.09;10316379;28;97084;-61
2022/04/03 21:30:50;;;;;;;12.52;8.35;;;;;;;-0.17;61.63;96249.41;10308250;28;97988;-61
2022/04/03 21:35:53;;;;;;;10.75;8.27;;;;;;;-0.13;61.55;96256.03;10322925;28;98473;-60
2022/04/03 21:40:56;;;;;;;10.10;8.00;;;;;;;-0.04;61.67;96268.41;10322317;28;97625;-60
2022/04/03 21:46:00;;;;;;;10.77;8.43;;;;;;;0.04;61.13;96263.66;10329436;28;96761;-60
2022/04/03 21:51:04;;;;;;;11.52;8.25;;;;;;;0.11;61.07;96271.03;10327691;28;96975;-61
2022/04/03 21:56:07;;;;;;;10.88;7.85;;;;;;;0.21;61.08;96269.63;10303905;28;99820;-60
2022/04/03 22:01:13;;;;;;;10.48;8.00;;;;;;;0.21;60.98;96274.78;10313107;28;96860;-60
2022/04/03 22:06:16;;;;;;;11.27;8.15;;;;;;;0.17;61.65;96284.38;10308532;28;96782;-60
2022/04/03 22:11:19;;;;;;;11.68;8.63;;;;;;;0.21;61.60;96279.91;10299985;28;96794;-60
2022/04/03 22:16:23;;;;;;;11.70;8.85;;;;;;;0.23;61.40;96278.91;10307750;28;96993;-60
2022/04/03 22:21:26;;;;;;;12.50;8.27;;;;;;;0.29;61.17;96285.47;10326425;28;100051;-60
2022/04/03 22:26:29;;;;;;;10.13;8.27;;;;;;;0.33;60.48;96283.56;10316859;28;96914;-60
2022/04/03 22:31:33;;;;;;;11.70;7.88;;;;;;;0.42;61.09;96283.84;10318813;28;97086;-60
2022/04/03 22:36:36;;;;;;;12.82;8.73;;;;;;;0.47;60.99;96287.94;10314906;28;98636;-60
2022/04/03 22:41:39;;;;;;;12.70;8.93;;;;;;;0.42;60.93;96283.03;10336113;28;96712;-60
2022/04/03 22:46:48;;;;;;;13.10;8.75;;;;;;;0.42;60.74;96289.00;10309859;28;96893;-60
2022/04/03 22:51:51;;;;;;;13.52;9.35;;;;;;;0.42;61.41;96288.19;10311781;28;96767;-60
2022/04/03 22:56:54;;;;;;;10.75;8.48;;;;;;;0.39;60.92;96294.34;10334275;28;96762;-60
2022/04/03 23:01:58;;;;;;;11.88;8.80;;;;;;;0.41;60.97;96297.66;10321071;28;97880;-60
2022/04/03 23:07:01;;;;;;;11.18;9.10;;;;;;;0.38;61.47;96295.22;10314769;28;96936;-60
2022/04/03 23:12:06;;;;;;;12.43;8.80;;;;;;;0.38;61.15;96296.97;10329172;28;96837;-60
2022/04/03 23:17:10;;;;;;;13.70;8.53;;;;;;;0.38;60.92;96287.53;10326653;28;96866;-60
2022/04/03 23:22:13;;;;;;;12.90;8.90;;;;;;;0.42;61.77;96283.84;10329456;28;97193;-60
2022/04/03 23:27:17;;;;;;;12.82;9.05;;;;;;;0.43;61.14;96295.81;10306818;28;97053;-60
2022/04/03 23:32:22;;;;;;;11.57;8.20;;;;;;;0.43;61.42;96295.00;10304151;28;101532;-60
2022/04/03 23:37:32;;;;;;;11.43;8.32;;;;;;;0.46;61.44;96293.97;10311962;28;98849;-60
2022/04/03 23:42:35;;;;;;;11.27;8.10;;;;;;;0.47;61.28;96295.66;10333041;28;96736;-60